sensor_id;sensor_type;location;lat;lon;timestamp;P1;durP1;ratioP1;P2;durP2;ratioP2
59193;SDS011;44967;48.598;15.650;2023-09-18T00:00:46;5.47;;;4.97;;
59193;SDS011;44967;48.598;15.650;2023-09-18T00:03:19;5.28;;;4.78;;
59193;SDS011;44967;48.598;15.650;2023-09-18T00:05:46;6.00;;;5.40;;
59193;SDS011;44967;48.598;15.650;2023-09-18T00:08:13;6.43;;;5.03;;
59193;SDS011;44967;48.598;15.650;2023-09-18T00:10:40;5.25;;;4.75;;
59193;SDS011;44967;48.598;15.650;2023-09-18T00:13:05;5.43;;;4.93;;
59193;SDS011;44967;48.598;15.650;2023-09-18T00:15:31;5.13;;;4.63;;
59193;SDS011;44967;48.598;15.650;2023-09-18T00:17:57;5.95;;;4.95;;
59193;SDS011;44967;48.598;15.650;2023-09-18T00:20:22;6.93;;;5.13;;
59193;SDS011;44967;48.598;15.650;2023-09-18T00:22:55;5.72;;;4.50;;
59193;SDS011;44967;48.598;15.650;2023-09-18T00:25:21;6.10;;;4.68;;
59193;SDS011;44967;48.598;15.650;2023-09-18T00:27:48;6.45;;;5.40;;
59193;SDS011;44967;48.598;15.650;2023-09-18T00:30:14;6.03;;;4.78;;
59193;SDS011;44967;48.598;15.650;2023-09-18T00:32:39;6.30;;;4.70;;
59193;SDS011;44967;48.598;15.650;2023-09-18T00:35:05;6.72;;;4.68;;
59193;SDS011;44967;48.598;15.650;2023-09-18T00:37:32;8.18;;;4.88;;
59193;SDS011;44967;48.598;15.650;2023-09-18T00:39:57;6.30;;;5.70;;
59193;SDS011;44967;48.598;15.650;2023-09-18T00:42:23;5.43;;;4.70;;
59193;SDS011;44967;48.598;15.650;2023-09-18T00:44:49;8.50;;;5.18;;
59193;SDS011;44967;48.598;15.650;2023-09-18T00:47:18;6.32;;;5.45;;
59193;SDS011;44967;48.598;15.650;2023-09-18T00:49:45;6.25;;;4.47;;
59193;SDS011;44967;48.598;15.650;2023-09-18T00:52:14;5.63;;;4.82;;
59193;SDS011;44967;48.598;15.650;2023-09-18T00:54:40;7.45;;;5.20;;
59193;SDS011;44967;48.598;15.650;2023-09-18T00:57:08;6.75;;;4.57;;
59193;SDS011;44967;48.598;15.650;2023-09-18T00:59:36;5.13;;;4.63;;
59193;SDS011;44967;48.598;15.650;2023-09-18T01:02:02;6.70;;;4.85;;
59193;SDS011;44967;48.598;15.650;2023-09-18T01:04:29;6.93;;;4.80;;
59193;SDS011;44967;48.598;15.650;2023-09-18T01:06:58;6.47;;;5.05;;
59193;SDS011;44967;48.598;15.650;2023-09-18T01:09:26;5.97;;;4.78;;
59193;SDS011;44967;48.598;15.650;2023-09-18T01:17:09;6.53;;;5.30;;
59193;SDS011;44967;48.598;15.650;2023-09-18T01:19:45;5.38;;;4.70;;
59193;SDS011;44967;48.598;15.650;2023-09-18T01:22:12;7.60;;;5.25;;
59193;SDS011;44967;48.598;15.650;2023-09-18T01:24:40;6.80;;;4.95;;
59193;SDS011;44967;48.598;15.650;2023-09-18T01:27:13;6.10;;;4.85;;
59193;SDS011;44967;48.598;15.650;2023-09-18T01:29:42;5.55;;;4.95;;
59193;SDS011;44967;48.598;15.650;2023-09-18T01:32:09;5.45;;;4.90;;
59193;SDS011;44967;48.598;15.650;2023-09-18T01:34:36;5.40;;;4.88;;
59193;SDS011;44967;48.598;15.650;2023-09-18T01:37:06;5.32;;;4.80;;
59193;SDS011;44967;48.598;15.650;2023-09-18T01:39:34;5.60;;;4.97;;
59193;SDS011;44967;48.598;15.650;2023-09-18T01:42:02;8.65;;;5.25;;
59193;SDS011;44967;48.598;15.650;2023-09-18T01:44:32;5.57;;;5.00;;
59193;SDS011;44967;48.598;15.650;2023-09-18T01:46:59;7.45;;;5.25;;
59193;SDS011;44967;48.598;15.650;2023-09-18T01:49:34;6.43;;;5.60;;
59193;SDS011;44967;48.598;15.650;2023-09-18T01:52:02;5.35;;;4.82;;
59193;SDS011;44967;48.598;15.650;2023-09-18T01:54:29;6.53;;;4.97;;
59193;SDS011;44967;48.598;15.650;2023-09-18T01:56:55;5.63;;;5.05;;
59193;SDS011;44967;48.598;15.650;2023-09-18T01:59:22;4.85;;;4.43;;
59193;SDS011;44967;48.598;15.650;2023-09-18T02:01:49;6.93;;;4.93;;
59193;SDS011;44967;48.598;15.650;2023-09-18T02:04:15;7.75;;;5.70;;
59193;SDS011;44967;48.598;15.650;2023-09-18T02:06:42;6.57;;;5.05;;
59193;SDS011;44967;48.598;15.650;2023-09-18T02:09:08;6.15;;;5.10;;
59193;SDS011;44967;48.598;15.650;2023-09-18T02:11:41;5.85;;;5.05;;
59193;SDS011;44967;48.598;15.650;2023-09-18T02:14:08;6.47;;;5.63;;
59193;SDS011;44967;48.598;15.650;2023-09-18T02:16:35;6.03;;;5.40;;
59193;SDS011;44967;48.598;15.650;2023-09-18T02:19:03;9.40;;;5.65;;
59193;SDS011;44967;48.598;15.650;2023-09-18T02:21:29;6.00;;;5.32;;
59193;SDS011;44967;48.598;15.650;2023-09-18T02:23:56;5.75;;;5.20;;
59193;SDS011;44967;48.598;15.650;2023-09-18T02:26:23;6.75;;;5.00;;
59193;SDS011;44967;48.598;15.650;2023-09-18T02:28:51;7.95;;;5.57;;
59193;SDS011;44967;48.598;15.650;2023-09-18T02:31:18;7.40;;;5.63;;
59193;SDS011;44967;48.598;15.650;2023-09-18T02:33:44;6.40;;;5.60;;
59193;SDS011;44967;48.598;15.650;2023-09-18T02:36:10;6.53;;;5.45;;
59193;SDS011;44967;48.598;15.650;2023-09-18T02:38:35;7.95;;;5.70;;
59193;SDS011;44967;48.598;15.650;2023-09-18T02:41:01;5.60;;;5.00;;
59193;SDS011;44967;48.598;15.650;2023-09-18T02:43:27;6.00;;;5.40;;
59193;SDS011;44967;48.598;15.650;2023-09-18T02:45:52;5.22;;;4.72;;
59193;SDS011;44967;48.598;15.650;2023-09-18T02:48:18;7.45;;;5.13;;
59193;SDS011;44967;48.598;15.650;2023-09-18T02:50:44;5.97;;;5.10;;
59193;SDS011;44967;48.598;15.650;2023-09-18T02:53:16;8.13;;;5.65;;
59193;SDS011;44967;48.598;15.650;2023-09-18T02:55:48;7.15;;;5.53;;
59193;SDS011;44967;48.598;15.650;2023-09-18T02:58:14;7.95;;;6.32;;
59193;SDS011;44967;48.598;15.650;2023-09-18T03:00:44;7.38;;;5.70;;
59193;SDS011;44967;48.598;15.650;2023-09-18T03:03:11;6.75;;;6.00;;
59193;SDS011;44967;48.598;15.650;2023-09-18T03:05:38;6.00;;;5.40;;
59193;SDS011;44967;48.598;15.650;2023-09-18T03:08:04;6.32;;;5.20;;
59193;SDS011;44967;48.598;15.650;2023-09-18T03:10:35;9.45;;;5.88;;
59193;SDS011;44967;48.598;15.650;2023-09-18T03:13:03;6.55;;;5.40;;
59193;SDS011;44967;48.598;15.650;2023-09-18T03:15:30;7.53;;;6.18;;
59193;SDS011;44967;48.598;15.650;2023-09-18T03:17:57;8.73;;;6.07;;
59193;SDS011;44967;48.598;15.650;2023-09-18T03:20:23;6.28;;;5.63;;
59193;SDS011;44967;48.598;15.650;2023-09-18T03:22:54;6.75;;;5.57;;
59193;SDS011;44967;48.598;15.650;2023-09-18T03:25:21;8.27;;;5.70;;
59193;SDS011;44967;48.598;15.650;2023-09-18T03:27:51;7.90;;;6.18;;
59193;SDS011;44967;48.598;15.650;2023-09-18T03:30:18;8.55;;;6.07;;
59193;SDS011;44967;48.598;15.650;2023-09-18T03:32:45;6.65;;;5.68;;
59193;SDS011;44967;48.598;15.650;2023-09-18T03:35:11;6.43;;;5.63;;
59193;SDS011;44967;48.598;15.650;2023-09-18T03:37:53;7.63;;;5.53;;
59193;SDS011;44967;48.598;15.650;2023-09-18T03:40:21;7.57;;;5.82;;
59193;SDS011;44967;48.598;15.650;2023-09-18T03:42:47;8.90;;;5.88;;
59193;SDS011;44967;48.598;15.650;2023-09-18T03:45:14;6.57;;;5.97;;
59193;SDS011;44967;48.598;15.650;2023-09-18T03:47:42;6.82;;;6.20;;
59193;SDS011;44967;48.598;15.650;2023-09-18T03:50:08;6.75;;;5.90;;
59193;SDS011;44967;48.598;15.650;2023-09-18T03:52:35;9.32;;;6.32;;
59193;SDS011;44967;48.598;15.650;2023-09-18T03:55:02;7.43;;;6.57;;
59193;SDS011;44967;48.598;15.650;2023-09-18T03:57:27;6.80;;;6.05;;
59193;SDS011;44967;48.598;15.650;2023-09-18T03:59:53;7.60;;;6.75;;
59193;SDS011;44967;48.598;15.650;2023-09-18T04:02:20;8.50;;;6.80;;
59193;SDS011;44967;48.598;15.650;2023-09-18T04:04:47;8.77;;;6.18;;
59193;SDS011;44967;48.598;15.650;2023-09-18T04:07:12;6.25;;;5.65;;
59193;SDS011;44967;48.598;15.650;2023-09-18T04:09:41;7.63;;;6.75;;
59193;SDS011;44967;48.598;15.650;2023-09-18T04:12:08;7.57;;;6.57;;
59193;SDS011;44967;48.598;15.650;2023-09-18T04:14:35;9.48;;;6.80;;
59193;SDS011;44967;48.598;15.650;2023-09-18T04:17:01;9.10;;;6.18;;
59193;SDS011;44967;48.598;15.650;2023-09-18T04:19:27;9.10;;;6.43;;
59193;SDS011;44967;48.598;15.650;2023-09-18T04:21:53;7.18;;;5.95;;
59193;SDS011;44967;48.598;15.650;2023-09-18T04:24:19;9.13;;;6.30;;
59193;SDS011;44967;48.598;15.650;2023-09-18T04:26:44;9.02;;;6.82;;
59193;SDS011;44967;48.598;15.650;2023-09-18T04:29:10;8.55;;;6.43;;
59193;SDS011;44967;48.598;15.650;2023-09-18T04:31:36;8.73;;;6.28;;
59193;SDS011;44967;48.598;15.650;2023-09-18T04:34:03;7.57;;;6.20;;
59193;SDS011;44967;48.598;15.650;2023-09-18T04:36:29;7.25;;;6.28;;
59193;SDS011;44967;48.598;15.650;2023-09-18T04:38:55;8.40;;;6.40;;
59193;SDS011;44967;48.598;15.650;2023-09-18T04:41:21;7.78;;;5.93;;
59193;SDS011;44967;48.598;15.650;2023-09-18T04:43:47;10.45;;;7.00;;
59193;SDS011;44967;48.598;15.650;2023-09-18T04:46:13;7.63;;;6.82;;
59193;SDS011;44967;48.598;15.650;2023-09-18T04:48:38;8.57;;;6.72;;
59193;SDS011;44967;48.598;15.650;2023-09-18T04:51:04;7.13;;;6.03;;
59193;SDS011;44967;48.598;15.650;2023-09-18T04:53:30;8.52;;;6.95;;
59193;SDS011;44967;48.598;15.650;2023-09-18T04:55:57;8.07;;;6.43;;
59193;SDS011;44967;48.598;15.650;2023-09-18T04:58:23;10.57;;;6.70;;
59193;SDS011;44967;48.598;15.650;2023-09-18T05:00:58;10.15;;;6.78;;
59193;SDS011;44967;48.598;15.650;2023-09-18T05:03:26;8.25;;;6.60;;
59193;SDS011;44967;48.598;15.650;2023-09-18T05:05:52;8.02;;;7.10;;
59193;SDS011;44967;48.598;15.650;2023-09-18T05:08:17;9.32;;;6.82;;
59193;SDS011;44967;48.598;15.650;2023-09-18T05:10:43;8.25;;;7.13;;
59193;SDS011;44967;48.598;15.650;2023-09-18T05:13:11;7.72;;;6.82;;
59193;SDS011;44967;48.598;15.650;2023-09-18T05:15:37;8.27;;;7.30;;
59193;SDS011;44967;48.598;15.650;2023-09-18T05:18:02;10.43;;;7.80;;
59193;SDS011;44967;48.598;15.650;2023-09-18T05:20:29;9.27;;;7.20;;
59193;SDS011;44967;48.598;15.650;2023-09-18T05:22:56;8.45;;;7.28;;
59193;SDS011;44967;48.598;15.650;2023-09-18T05:25:23;8.35;;;6.75;;
59193;SDS011;44967;48.598;15.650;2023-09-18T05:27:51;8.05;;;6.72;;
59193;SDS011;44967;48.598;15.650;2023-09-18T05:30:24;9.40;;;7.22;;
59193;SDS011;44967;48.598;15.650;2023-09-18T05:32:56;11.13;;;9.77;;
59193;SDS011;44967;48.598;15.650;2023-09-18T05:35:22;10.50;;;8.25;;
59193;SDS011;44967;48.598;15.650;2023-09-18T05:37:51;9.00;;;7.30;;
59193;SDS011;44967;48.598;15.650;2023-09-18T05:40:18;12.05;;;7.70;;
59193;SDS011;44967;48.598;15.650;2023-09-18T05:42:43;9.65;;;7.75;;
59193;SDS011;44967;48.598;15.650;2023-09-18T05:45:10;8.52;;;7.57;;
59193;SDS011;44967;48.598;15.650;2023-09-18T05:47:37;8.23;;;7.35;;
59193;SDS011;44967;48.598;15.650;2023-09-18T05:50:06;8.70;;;7.28;;
59193;SDS011;44967;48.598;15.650;2023-09-18T05:52:33;8.38;;;7.30;;
59193;SDS011;44967;48.598;15.650;2023-09-18T05:55:00;10.27;;;8.48;;
59193;SDS011;44967;48.598;15.650;2023-09-18T05:57:26;9.95;;;8.70;;
59193;SDS011;44967;48.598;15.650;2023-09-18T05:59:56;12.32;;;9.23;;
59193;SDS011;44967;48.598;15.650;2023-09-18T06:02:22;9.52;;;8.02;;
59193;SDS011;44967;48.598;15.650;2023-09-18T06:04:48;12.25;;;9.18;;
59193;SDS011;44967;48.598;15.650;2023-09-18T06:07:14;11.90;;;9.27;;
59193;SDS011;44967;48.598;15.650;2023-09-18T06:09:40;11.10;;;8.98;;
59193;SDS011;44967;48.598;15.650;2023-09-18T06:12:06;11.50;;;8.82;;
59193;SDS011;44967;48.598;15.650;2023-09-18T06:14:32;10.13;;;8.35;;
59193;SDS011;44967;48.598;15.650;2023-09-18T06:17:03;11.25;;;9.57;;
59193;SDS011;44967;48.598;15.650;2023-09-18T06:19:29;13.10;;;9.77;;
59193;SDS011;44967;48.598;15.650;2023-09-18T06:21:55;14.00;;;10.75;;
59193;SDS011;44967;48.598;15.650;2023-09-18T06:24:21;12.18;;;10.52;;
59193;SDS011;44967;48.598;15.650;2023-09-18T06:26:46;12.07;;;10.48;;
59193;SDS011;44967;48.598;15.650;2023-09-18T06:29:12;11.88;;;10.52;;
59193;SDS011;44967;48.598;15.650;2023-09-18T06:31:38;11.00;;;8.48;;
59193;SDS011;44967;48.598;15.650;2023-09-18T06:34:04;8.98;;;7.03;;
59193;SDS011;44967;48.598;15.650;2023-09-18T06:36:30;11.35;;;9.55;;
59193;SDS011;44967;48.598;15.650;2023-09-18T06:38:56;13.27;;;10.45;;
59193;SDS011;44967;48.598;15.650;2023-09-18T06:41:21;15.57;;;12.10;;
59193;SDS011;44967;48.598;15.650;2023-09-18T06:43:47;14.07;;;10.10;;
59193;SDS011;44967;48.598;15.650;2023-09-18T06:46:12;11.00;;;9.88;;
59193;SDS011;44967;48.598;15.650;2023-09-18T06:48:38;14.20;;;11.10;;
59193;SDS011;44967;48.598;15.650;2023-09-18T06:51:04;13.35;;;11.57;;
59193;SDS011;44967;48.598;15.650;2023-09-18T06:53:31;16.55;;;12.35;;
59193;SDS011;44967;48.598;15.650;2023-09-18T06:55:57;16.73;;;12.60;;
59193;SDS011;44967;48.598;15.650;2023-09-18T06:58:22;17.25;;;14.48;;
59193;SDS011;44967;48.598;15.650;2023-09-18T07:00:48;17.38;;;12.70;;
59193;SDS011;44967;48.598;15.650;2023-09-18T07:03:15;17.45;;;13.52;;
59193;SDS011;44967;48.598;15.650;2023-09-18T07:05:43;16.10;;;14.10;;
59193;SDS011;44967;48.598;15.650;2023-09-18T07:08:09;14.20;;;12.55;;
59193;SDS011;44967;48.598;15.650;2023-09-18T07:10:37;20.70;;;15.27;;
59193;SDS011;44967;48.598;15.650;2023-09-18T07:13:04;17.88;;;13.88;;
59193;SDS011;44967;48.598;15.650;2023-09-18T07:15:29;13.77;;;11.70;;
59193;SDS011;44967;48.598;15.650;2023-09-18T07:17:55;18.58;;;14.85;;
59193;SDS011;44967;48.598;15.650;2023-09-18T07:20:21;17.27;;;14.13;;
59193;SDS011;44967;48.598;15.650;2023-09-18T07:22:48;15.85;;;13.25;;
59193;SDS011;44967;48.598;15.650;2023-09-18T07:25:14;15.05;;;13.45;;
59193;SDS011;44967;48.598;15.650;2023-09-18T07:27:40;16.27;;;11.98;;
59193;SDS011;44967;48.598;15.650;2023-09-18T07:30:09;18.63;;;14.68;;
59193;SDS011;44967;48.598;15.650;2023-09-18T07:32:36;18.30;;;14.27;;
59193;SDS011;44967;48.598;15.650;2023-09-18T07:35:05;18.10;;;14.35;;
59193;SDS011;44967;48.598;15.650;2023-09-18T07:37:32;15.63;;;13.23;;
59193;SDS011;44967;48.598;15.650;2023-09-18T07:39:58;20.25;;;13.02;;
59193;SDS011;44967;48.598;15.650;2023-09-18T07:42:24;16.23;;;13.60;;
59193;SDS011;44967;48.598;15.650;2023-09-18T07:44:51;16.20;;;12.63;;
59193;SDS011;44967;48.598;15.650;2023-09-18T07:47:17;15.70;;;12.90;;
59193;SDS011;44967;48.598;15.650;2023-09-18T07:49:42;14.77;;;12.27;;
59193;SDS011;44967;48.598;15.650;2023-09-18T07:52:08;14.52;;;12.95;;
59193;SDS011;44967;48.598;15.650;2023-09-18T07:54:34;12.95;;;11.18;;
59193;SDS011;44967;48.598;15.650;2023-09-18T07:56:59;16.88;;;11.88;;
59193;SDS011;44967;48.598;15.650;2023-09-18T07:59:25;15.23;;;13.23;;
59193;SDS011;44967;48.598;15.650;2023-09-18T08:01:51;14.60;;;11.80;;
59193;SDS011;44967;48.598;15.650;2023-09-18T08:04:17;15.55;;;12.55;;
59193;SDS011;44967;48.598;15.650;2023-09-18T08:06:43;14.07;;;11.95;;
59193;SDS011;44967;48.598;15.650;2023-09-18T08:09:08;11.82;;;10.55;;
59193;SDS011;44967;48.598;15.650;2023-09-18T08:11:41;13.43;;;10.85;;
59193;SDS011;44967;48.598;15.650;2023-09-18T08:14:10;14.43;;;11.30;;
59193;SDS011;44967;48.598;15.650;2023-09-18T08:16:39;11.63;;;9.98;;
59193;SDS011;44967;48.598;15.650;2023-09-18T08:19:05;14.30;;;10.85;;
59193;SDS011;44967;48.598;15.650;2023-09-18T08:21:32;12.32;;;10.27;;
59193;SDS011;44967;48.598;15.650;2023-09-18T08:23:58;11.02;;;8.80;;
59193;SDS011;44967;48.598;15.650;2023-09-18T08:26:24;13.02;;;9.82;;
59193;SDS011;44967;48.598;15.650;2023-09-18T08:28:50;12.38;;;10.13;;
59193;SDS011;44967;48.598;15.650;2023-09-18T08:31:16;11.18;;;9.77;;
59193;SDS011;44967;48.598;15.650;2023-09-18T08:33:44;10.00;;;8.43;;
59193;SDS011;44967;48.598;15.650;2023-09-18T08:36:10;12.18;;;10.00;;
59193;SDS011;44967;48.598;15.650;2023-09-18T08:38:36;10.35;;;9.02;;
59193;SDS011;44967;48.598;15.650;2023-09-18T08:41:01;12.35;;;9.20;;
59193;SDS011;44967;48.598;15.650;2023-09-18T08:43:29;13.73;;;9.00;;
59193;SDS011;44967;48.598;15.650;2023-09-18T08:45:57;12.93;;;10.00;;
59193;SDS011;44967;48.598;15.650;2023-09-18T08:48:27;11.18;;;9.32;;
59193;SDS011;44967;48.598;15.650;2023-09-18T08:51:03;14.50;;;10.43;;
59193;SDS011;44967;48.598;15.650;2023-09-18T08:53:31;10.52;;;9.23;;
59193;SDS011;44967;48.598;15.650;2023-09-18T08:56:01;11.98;;;9.25;;
59193;SDS011;44967;48.598;15.650;2023-09-18T08:58:35;10.35;;;9.32;;
59193;SDS011;44967;48.598;15.650;2023-09-18T09:01:05;10.70;;;9.43;;
59193;SDS011;44967;48.598;15.650;2023-09-18T09:03:41;9.90;;;8.90;;
59193;SDS011;44967;48.598;15.650;2023-09-18T09:06:08;9.50;;;8.48;;
59193;SDS011;44967;48.598;15.650;2023-09-18T09:08:35;10.93;;;8.30;;
59193;SDS011;44967;48.598;15.650;2023-09-18T09:11:04;10.77;;;8.90;;
59193;SDS011;44967;48.598;15.650;2023-09-18T09:13:31;9.38;;;8.35;;
59193;SDS011;44967;48.598;15.650;2023-09-18T09:15:57;9.40;;;7.88;;
59193;SDS011;44967;48.598;15.650;2023-09-18T09:18:24;8.32;;;7.53;;
59193;SDS011;44967;48.598;15.650;2023-09-18T09:20:55;9.65;;;7.75;;
59193;SDS011;44967;48.598;15.650;2023-09-18T09:23:25;10.23;;;7.93;;
59193;SDS011;44967;48.598;15.650;2023-09-18T09:25:52;15.77;;;8.57;;
59193;SDS011;44967;48.598;15.650;2023-09-18T09:28:28;10.65;;;8.43;;
59193;SDS011;44967;48.598;15.650;2023-09-18T09:31:00;8.93;;;8.00;;
59193;SDS011;44967;48.598;15.650;2023-09-18T09:33:28;8.25;;;7.40;;
59193;SDS011;44967;48.598;15.650;2023-09-18T09:35:55;7.93;;;7.03;;
59193;SDS011;44967;48.598;15.650;2023-09-18T09:38:27;9.52;;;7.10;;
59193;SDS011;44967;48.598;15.650;2023-09-18T09:43:22;9.13;;;7.22;;
59193;SDS011;44967;48.598;15.650;2023-09-18T09:45:48;8.85;;;5.75;;
59193;SDS011;44967;48.598;15.650;2023-09-18T09:48:13;6.47;;;5.88;;
59193;SDS011;44967;48.598;15.650;2023-09-18T09:50:46;6.32;;;5.63;;
59193;SDS011;44967;48.598;15.650;2023-09-18T09:53:13;5.60;;;5.00;;
59193;SDS011;44967;48.598;15.650;2023-09-18T09:55:39;6.10;;;4.60;;
59193;SDS011;44967;48.598;15.650;2023-09-18T09:58:07;5.03;;;4.63;;
59193;SDS011;44967;48.598;15.650;2023-09-18T10:03:09;5.30;;;4.10;;
59193;SDS011;44967;48.598;15.650;2023-09-18T10:05:36;4.43;;;4.03;;
59193;SDS011;44967;48.598;15.650;2023-09-18T10:08:07;6.38;;;4.30;;
59193;SDS011;44967;48.598;15.650;2023-09-18T10:10:42;5.75;;;3.95;;
59193;SDS011;44967;48.598;15.650;2023-09-18T10:13:15;4.47;;;4.07;;
59193;SDS011;44967;48.598;15.650;2023-09-18T10:15:45;5.55;;;4.53;;
59193;SDS011;44967;48.598;15.650;2023-09-18T10:21:06;4.53;;;4.13;;
59193;SDS011;44967;48.598;15.650;2023-09-18T10:26:24;6.43;;;4.38;;
59193;SDS011;44967;48.598;15.650;2023-09-18T10:28:54;10.73;;;4.28;;
59193;SDS011;44967;48.598;15.650;2023-09-18T10:31:26;5.00;;;3.95;;
59193;SDS011;44967;48.598;15.650;2023-09-18T10:33:52;4.38;;;3.92;;
59193;SDS011;44967;48.598;15.650;2023-09-18T10:36:22;6.35;;;4.82;;
59193;SDS011;44967;48.598;15.650;2023-09-18T10:38:49;5.10;;;4.10;;
59193;SDS011;44967;48.598;15.650;2023-09-18T10:41:17;4.78;;;4.38;;
59193;SDS011;44967;48.598;15.650;2023-09-18T10:43:45;4.85;;;3.78;;
59193;SDS011;44967;48.598;15.650;2023-09-18T10:46:12;4.50;;;4.00;;
59193;SDS011;44967;48.598;15.650;2023-09-18T10:48:40;4.53;;;3.55;;
59193;SDS011;44967;48.598;15.650;2023-09-18T10:51:08;5.85;;;3.80;;
59193;SDS011;44967;48.598;15.650;2023-09-18T10:53:35;4.25;;;3.72;;
59193;SDS011;44967;48.598;15.650;2023-09-18T10:56:01;4.13;;;3.35;;
59193;SDS011;44967;48.598;15.650;2023-09-18T10:58:29;3.60;;;3.00;;
59193;SDS011;44967;48.598;15.650;2023-09-18T11:00:55;5.05;;;3.85;;
59193;SDS011;44967;48.598;15.650;2023-09-18T11:03:23;6.13;;;3.45;;
59193;SDS011;44967;48.598;15.650;2023-09-18T11:06:02;4.53;;;3.83;;
59193;SDS011;44967;48.598;15.650;2023-09-18T11:08:42;4.88;;;3.95;;
59193;SDS011;44967;48.598;15.650;2023-09-18T11:11:11;4.20;;;3.67;;
59193;SDS011;44967;48.598;15.650;2023-09-18T11:13:45;5.25;;;3.70;;
59193;SDS011;44967;48.598;15.650;2023-09-18T11:16:33;7.45;;;3.78;;
59193;SDS011;44967;48.598;15.650;2023-09-18T11:21:31;3.92;;;3.42;;
59193;SDS011;44967;48.598;15.650;2023-09-18T11:23:59;8.60;;;3.58;;
59193;SDS011;44967;48.598;15.650;2023-09-18T11:26:30;5.97;;;3.70;;
59193;SDS011;44967;48.598;15.650;2023-09-18T11:29:00;6.28;;;3.78;;
59193;SDS011;44967;48.598;15.650;2023-09-18T11:31:48;6.50;;;3.70;;
59193;SDS011;44967;48.598;15.650;2023-09-18T11:34:20;4.22;;;3.80;;
59193;SDS011;44967;48.598;15.650;2023-09-18T11:36:47;4.57;;;3.58;;
59193;SDS011;44967;48.598;15.650;2023-09-18T11:39:13;4.00;;;3.53;;
59193;SDS011;44967;48.598;15.650;2023-09-18T11:41:57;6.70;;;3.90;;
59193;SDS011;44967;48.598;15.650;2023-09-18T11:44:54;6.18;;;3.30;;
59193;SDS011;44967;48.598;15.650;2023-09-18T11:47:23;4.95;;;3.38;;
59193;SDS011;44967;48.598;15.650;2023-09-18T11:49:50;5.95;;;3.85;;
59193;SDS011;44967;48.598;15.650;2023-09-18T11:52:25;5.93;;;4.13;;
59193;SDS011;44967;48.598;15.650;2023-09-18T11:54:52;6.43;;;3.88;;
59193;SDS011;44967;48.598;15.650;2023-09-18T11:57:19;6.38;;;3.60;;
59193;SDS011;44967;48.598;15.650;2023-09-18T11:59:45;7.07;;;4.03;;
59193;SDS011;44967;48.598;15.650;2023-09-18T12:02:27;5.68;;;4.22;;
59193;SDS011;44967;48.598;15.650;2023-09-18T12:05:15;5.68;;;3.78;;
59193;SDS011;44967;48.598;15.650;2023-09-18T12:07:44;5.22;;;3.30;;
59193;SDS011;44967;48.598;15.650;2023-09-18T12:10:12;5.60;;;3.22;;
59193;SDS011;44967;48.598;15.650;2023-09-18T12:12:41;3.88;;;3.47;;
59193;SDS011;44967;48.598;15.650;2023-09-18T12:15:10;4.65;;;3.47;;
59193;SDS011;44967;48.598;15.650;2023-09-18T12:17:37;5.22;;;3.75;;
59193;SDS011;44967;48.598;15.650;2023-09-18T12:20:03;4.72;;;3.40;;
59193;SDS011;44967;48.598;15.650;2023-09-18T12:22:30;3.78;;;3.13;;
59193;SDS011;44967;48.598;15.650;2023-09-18T12:25:09;5.55;;;3.38;;
59193;SDS011;44967;48.598;15.650;2023-09-18T12:27:36;4.40;;;3.60;;
59193;SDS011;44967;48.598;15.650;2023-09-18T12:30:03;4.13;;;3.53;;
59193;SDS011;44967;48.598;15.650;2023-09-18T12:32:30;5.90;;;3.50;;
59193;SDS011;44967;48.598;15.650;2023-09-18T12:34:57;5.57;;;3.42;;
59193;SDS011;44967;48.598;15.650;2023-09-18T12:37:23;3.95;;;2.83;;
59193;SDS011;44967;48.598;15.650;2023-09-18T12:39:50;7.63;;;3.63;;
59193;SDS011;44967;48.598;15.650;2023-09-18T12:42:19;3.83;;;3.45;;
59193;SDS011;44967;48.598;15.650;2023-09-18T12:44:49;3.65;;;3.22;;
59193;SDS011;44967;48.598;15.650;2023-09-18T12:47:16;10.48;;;4.35;;
59193;SDS011;44967;48.598;15.650;2023-09-18T12:49:42;7.78;;;3.92;;
59193;SDS011;44967;48.598;15.650;2023-09-18T12:52:07;6.78;;;3.40;;
59193;SDS011;44967;48.598;15.650;2023-09-18T12:54:45;7.40;;;3.83;;
59193;SDS011;44967;48.598;15.650;2023-09-18T12:57:17;4.40;;;3.58;;
59193;SDS011;44967;48.598;15.650;2023-09-18T12:59:43;6.68;;;3.85;;
59193;SDS011;44967;48.598;15.650;2023-09-18T13:02:09;6.63;;;3.35;;
59193;SDS011;44967;48.598;15.650;2023-09-18T13:04:38;4.63;;;3.72;;
59193;SDS011;44967;48.598;15.650;2023-09-18T13:07:11;5.85;;;3.78;;
59193;SDS011;44967;48.598;15.650;2023-09-18T13:09:39;6.18;;;3.63;;
59193;SDS011;44967;48.598;15.650;2023-09-18T13:12:05;5.20;;;3.75;;
59193;SDS011;44967;48.598;15.650;2023-09-18T13:17:44;4.80;;;4.00;;
59193;SDS011;44967;48.598;15.650;2023-09-18T13:20:11;10.13;;;4.53;;
59193;SDS011;44967;48.598;15.650;2023-09-18T13:22:38;4.97;;;3.58;;
59193;SDS011;44967;48.598;15.650;2023-09-18T13:25:05;4.40;;;4.00;;
59193;SDS011;44967;48.598;15.650;2023-09-18T13:27:32;5.30;;;3.78;;
59193;SDS011;44967;48.598;15.650;2023-09-18T13:29:58;4.45;;;3.60;;
59193;SDS011;44967;48.598;15.650;2023-09-18T13:32:35;7.35;;;4.13;;
59193;SDS011;44967;48.598;15.650;2023-09-18T13:35:02;4.32;;;3.65;;
59193;SDS011;44967;48.598;15.650;2023-09-18T13:37:31;5.22;;;3.30;;
59193;SDS011;44967;48.598;15.650;2023-09-18T13:39:58;5.60;;;3.47;;
59193;SDS011;44967;48.598;15.650;2023-09-18T13:42:26;6.50;;;4.10;;
59193;SDS011;44967;48.598;15.650;2023-09-18T13:44:55;4.85;;;3.75;;
59193;SDS011;44967;48.598;15.650;2023-09-18T13:47:21;6.20;;;4.07;;
59193;SDS011;44967;48.598;15.650;2023-09-18T13:49:47;5.68;;;3.63;;
59193;SDS011;44967;48.598;15.650;2023-09-18T13:52:13;4.13;;;3.67;;
59193;SDS011;44967;48.598;15.650;2023-09-18T13:54:38;5.90;;;3.97;;
59193;SDS011;44967;48.598;15.650;2023-09-18T13:57:05;6.18;;;3.75;;
59193;SDS011;44967;48.598;15.650;2023-09-18T13:59:31;5.50;;;3.45;;
59193;SDS011;44967;48.598;15.650;2023-09-18T14:01:57;4.57;;;3.72;;
59193;SDS011;44967;48.598;15.650;2023-09-18T14:04:22;6.82;;;4.47;;
59193;SDS011;44967;48.598;15.650;2023-09-18T14:06:48;4.40;;;3.47;;
59193;SDS011;44967;48.598;15.650;2023-09-18T14:09:13;5.03;;;3.80;;
59193;SDS011;44967;48.598;15.650;2023-09-18T14:11:39;7.03;;;4.35;;
59193;SDS011;44967;48.598;15.650;2023-09-18T14:14:05;5.72;;;4.00;;
59193;SDS011;44967;48.598;15.650;2023-09-18T14:16:32;8.20;;;3.85;;
59193;SDS011;44967;48.598;15.650;2023-09-18T14:18:59;5.32;;;3.20;;
59193;SDS011;44967;48.598;15.650;2023-09-18T14:21:25;4.78;;;3.58;;
59193;SDS011;44967;48.598;15.650;2023-09-18T14:23:53;3.90;;;3.50;;
59193;SDS011;44967;48.598;15.650;2023-09-18T14:26:19;5.13;;;3.63;;
59193;SDS011;44967;48.598;15.650;2023-09-18T14:28:44;6.75;;;4.13;;
59193;SDS011;44967;48.598;15.650;2023-09-18T14:31:11;9.68;;;4.95;;
59193;SDS011;44967;48.598;15.650;2023-09-18T14:33:38;5.03;;;3.90;;
59193;SDS011;44967;48.598;15.650;2023-09-18T14:36:05;20.42;;;5.50;;
59193;SDS011;44967;48.598;15.650;2023-09-18T14:38:32;5.75;;;3.88;;
59193;SDS011;44967;48.598;15.650;2023-09-18T14:40:57;4.68;;;3.85;;
59193;SDS011;44967;48.598;15.650;2023-09-18T14:43:28;4.15;;;3.47;;
59193;SDS011;44967;48.598;15.650;2023-09-18T14:45:53;7.10;;;4.32;;
59193;SDS011;44967;48.598;15.650;2023-09-18T14:48:24;4.57;;;4.05;;
59193;SDS011;44967;48.598;15.650;2023-09-18T14:50:55;6.20;;;4.70;;
59193;SDS011;44967;48.598;15.650;2023-09-18T14:53:22;7.60;;;4.20;;